x

9442396 - La Push, Wa (lapw1) Weather Station

3:36 - Fri 1st Jul 2016 All times are PDT. -7 hours from GMT.

  • Wind
    6mph, 8mph gusts
  • Sea Temp 56°f
  • Luft Temp 51°f
  • Sea Pressure 1020.9mb
  • 9442396 - La Push, Wa
  • 9442396 - La Push, Wa

More Historic Weather Station data

Upgrade to MSW Pro to gain access to the past 30 days of data for over 8000 Wavebouys and Weather Stations around the globe.

Join Pro

Comparision Forecast

View Surf forecast
   
Fr 07/01 3:36 6 8 mph 1020.9mb 56f 51f
3:30 7 8 mph 1020.9mb 56f 51f
3:24 7 8 mph 1020.9mb 56f 51f
3:18 7 9 mph 1020.9mb 55f 51f
3:12 6 8 mph 1021mb 55f 51f
3:06 7 8 mph 1021mb 55f 51f
3:00 7 8 mph 1021.1mb 55f 51f
2:36 6 8 mph 1021.2mb 53f 51f
2:30 6 7 mph 1021.2mb 53f 51f
2:24 6 8 mph 1021.3mb 51f 51f
2:18 6 8 mph 1021.4mb 50f 51f
2:12 6 8 mph 1021.3mb 49f 51f
2:06 7 8 mph 1021.3mb 47f 51f
2:00 6 8 mph 1021.3mb 47f 51f
1:36 6 8 mph 1021.4mb 47f 51f
1:30 6 8 mph 1021.4mb 47f 51f
1:24 6 8 mph 1021.5mb 47f 51f
1:18 6 7 mph 1021.5mb 47f 51f
1:12 6 7 mph 1021.5mb 47f 51f
1:06 5 7 mph 1021.5mb 47f 51f
1:00 6 8 mph 1021.6mb 47f 51f
12:36 5 7 mph 1021.7mb 47f 52f
12:30 6 7 mph 1021.8mb 47f 52f
12:24 6
mph
1021.9mb 47f 52f
12:18 3 6 mph 1022mb 47f 52f
12:12 3 6 mph 1022mb 47f 52f
12:06 3 6 mph 1022mb 47f 52f
12:00 5 6 mph 1022.1mb 47f 52f
Do 06/30 11:36  -  mph 1022.1mb 47f 52f
11:30  -  mph 1022.2mb 47f 52f
11:24  -  mph 1022.3mb 47f 52f
11:18  -  mph 1022.4mb 47f 52f
11:12  -  mph 1022.4mb 47f 52f
11:06  -  mph 1022.4mb 47f 52f
11:00  -  mph 1022.4mb 47f 52f
10:36 1 2 mph 1022.4mb 47f 53f
10:30 2 3 mph 1022.5mb 47f 53f
10:24 2 3 mph 1022.5mb 47f 53f
10:18 2 5 mph 1022.6mb 47f 53f
10:12 2 3 mph 1022.6mb 47f 53f
10:06 3
mph
1022.6mb 47f 53f
10:00 3
mph
1022.6mb 47f 54f
9:36 2
mph
1022.6mb 47f 55f
9:30 1 2 mph 1022.5mb 48f 55f
9:24 1 2 mph 1022.5mb 47f 55f
9:18  -  3 mph 1022.5mb 47f 55f
9:12 2 6 mph 1022.5mb 47f 56f
9:06 3 6 mph 1022.6mb 47f 56f
9:00 5 6 mph 1022.7mb 47f 56f
8:36 6
mph
1022.8mb 47f 56f
8:30 6
mph
1022.8mb 47f 56f
8:24 5 6 mph 1022.8mb 47f 56f
8:18 5 6 mph 1022.8mb 47f 56f
8:12 6
mph
1022.8mb 47f 57f
8:06 5 6 mph 1022.9mb 47f 57f
8:00 6 7 mph 1022.9mb 46f 57f
7:36 7 8 mph - 46f 57f
7:30 6 8 mph - 46f 57f
7:24 6 8 mph - 46f 57f
7:18 7 8 mph - 46f 57f
7:12 7 9 mph - 46f 57f
7:06 7 9 mph - 45f 57f
7:00 7 9 mph - 46f 58f
6:36 7 9 mph - 46f 57f
6:30 7 11 mph - 46f 57f
6:24 8 10 mph - 45f 58f
6:18 8 11 mph - 45f 58f
6:12 9 13 mph - 45f 58f
6:06 10 13 mph - 45f 58f
6:00 9 13 mph - 46f 58f
5:30  -  mph - 46f 57f
5:24  -  mph - 46f 57f
5:18  -  mph - 46f 57f
5:12  -  mph - 46f 57f
5:06  -  mph - 46f 57f
5:00  -  mph - 46f 57f
4:36  -  mph 1024.3mb 47f 58f
3:36  -  mph 1024.6mb 49f 58f
3:30  -  mph 1024.7mb 49f 58f
3:24  -  mph 1024.7mb 49f 57f
3:18  -  mph 1024.7mb 49f 57f
3:12  -  mph 1024.7mb 49f 57f
3:06  -  mph 1024.7mb 49f 57f
3:00  -  mph 1024.7mb 50f 57f
2:36 10 13 mph 1024.9mb 49f 57f
2:30 10 14 mph 1024.9mb 49f 58f
2:24 11 13 mph 1024.9mb 49f 57f
2:18 8 10 mph 1025mb 48f 57f
2:12 7 9 mph 1025mb 48f 57f
2:06 8 10 mph 1025.1mb 47f 56f
2:00 7 10 mph 1025.1mb 47f 56f
1:36 8 9 mph 1025.3mb 46f 56f
1:30 7 9 mph 1025.3mb 46f 55f
1:24 8 10 mph 1025.3mb 46f 55f
1:18 8 9 mph 1025.3mb 46f 55f
1:12 8 9 mph 1025.3mb 46f 55f
1:06 7 9 mph 1025.3mb 46f 55f
1:00 7 9 mph 1025.4mb 46f 55f
12:36 11 14 mph 1025.6mb 47f 54f
12:30 7 9 mph 1025.4mb 46f 54f
12:24 7 8 mph 1025.4mb 46f 54f
12:18 7 9 mph 1025.4mb 46f 54f
12:12 8 9 mph 1025.4mb 46f 54f
12:06 8 10 mph 1025.4mb 46f 54f
12:00 7 8 mph 1025.3mb 46f 54f
11:36 8 9 mph 1025.4mb 47f 54f
11:30 6 8 mph 1025.4mb 46f 54f
11:24 6 8 mph 1025.3mb 46f 54f
11:18 5 6 mph 1025.2mb 46f 54f
11:12 5 7 mph 1025.2mb 46f 54f
11:06 2 6 mph 1025.2mb 47f 54f
11:00 6
mph
1025.3mb 46f 54f
10:36 5 6 mph 1025.2mb 46f 54f
10:30 5 6 mph 1025.3mb 46f 54f
10:24 6 7 mph 1025.3mb 47f 54f
10:18 5 7 mph 1025.2mb 46f 54f
10:12 6 7 mph 1025.1mb 46f 54f
10:06 5 6 mph 1025.1mb 46f 54f
10:00 5 6 mph 1025mb 46f 54f
9:36 2 3 mph 1025.1mb 46f 53f
9:30 3 5 mph 1025.1mb 46f 54f
9:24 1 2 mph 1025.1mb 46f 54f
9:18 1 3 mph 1025.2mb 46f 54f
9:12  -  2 mph 1025.1mb 46f 54f
9:06  -  1 mph 1025.1mb 46f 54f
9:00  -  2 mph 1025.1mb 46f 53f
8:24  -  mph 1025mb 47f -
8:18  -  mph 1025mb 47f -
8:12  -  mph 1024.9mb 46f -
8:06  -  mph 1024.9mb 47f -
8:00  -  mph 1024.9mb 47f -
7:36 5 6 mph 1024.9mb 47f 53f
7:30 2 3 mph 1025mb 47f 53f
7:24 2 3 mph 1025mb 47f 53f
7:18 2 3 mph 1025mb 47f 53f
7:12 3 5 mph 1024.9mb 47f 53f
7:06 3 6 mph 1024.9mb 47f 53f
7:00 5 6 mph 1024.9mb 47f 53f
6:36 6 7 mph 1024.7mb 48f 53f
6:30 6
mph
1024.7mb 48f 53f
6:24 5
mph
1024.7mb 48f 53f
6:18 3 5 mph 1024.7mb 48f 53f
6:12 2 5 mph 1024.7mb 48f 53f
6:06 3 6 mph 1024.7mb 48f 53f
6:00 5 6 mph 1024.6mb 48f 53f
5:36 3 6 mph 1024.5mb 49f 53f
5:30 5
mph
1024.5mb 49f 53f
5:24 3
mph
1024.5mb 50f 53f
5:18 3 5 mph 1024.6mb 50f 53f
5:12 5 7 mph 1024.5mb 50f 54f
5:06 6 7 mph 1024.5mb 51f 53f
5:00 5 6 mph 1024.4mb 52f 53f
4:36 5 6 mph 1024.4mb 55f 53f
4:30 6 7 mph 1024.4mb 55f 53f
4:24 7 9 mph 1024.4mb 55f 53f
4:18 6 8 mph 1024.4mb 55f 53f
4:12 6 8 mph 1024.3mb 56f 53f
4:06 5 6 mph 1024.2mb 56f 53f
4:00 5 6 mph 1024.1mb 56f 54f
3:54 5 6 mph 1024.1mb 56f 54f
3:48 5 7 mph 1024.2mb 56f 54f
3:36 3 6 mph 1024.2mb 56f 54f
3:30 2 3 mph 1024.2mb 56f 54f
3:24 1 2 mph 1024.1mb 56f 54f
3:18 1 2 mph 1024.1mb 56f 54f
3:12 2 3 mph 1024.2mb 56f 54f
3:06 2 5 mph 1024.1mb 56f 54f
3:00 3 5 mph 1024.1mb 56f 54f
2:54 3 6 mph 1024.1mb 56f 54f
2:48 3 5 mph 1024.1mb 56f 54f
2:36 3 5 mph 1024.1mb 56f 54f
2:30 3 5 mph 1024.2mb 56f 54f
2:24 3 6 mph 1024.1mb 56f 54f
2:18 5 6 mph 1024.1mb 56f 54f
2:12 5 7 mph 1024.1mb 56f 54f
2:06 6 7 mph 1024.1mb 56f 54f
2:00 6 7 mph 1024.1mb 55f 54f
1:54 6
mph
1024.2mb 55f 54f
1:48 3 6 mph 1024.2mb 54f 54f
1:36 2 5 mph 1024.2mb 53f 54f
1:30 3 6 mph 1024.3mb 52f 54f
1:24 3 5 mph 1024.3mb 50f 54f
1:18 3 6 mph 1024.3mb 49f 54f
1:12 3 5 mph 1024.3mb 48f 55f
1:06 2 3 mph 1024.3mb 48f 55f
1:00 3 5 mph 1024.3mb 48f 55f
12:54 1 3 mph 1024.2mb 48f 55f
12:48 2 3 mph 1024.3mb 48f 55f
12:36  -  2 mph 1024.2mb 48f 55f
12:30 1 3 mph 1024.2mb 48f 55f
12:24 1 2 mph 1024.2mb 48f 55f
12:18 2 5 mph 1024.2mb 48f 55f
12:12 2 7 mph 1024.3mb 47f 55f
12:06 5 6 mph 1024.4mb 47f 55f
12:00 2 5 mph 1024.3mb 47f 55f
Mi 06/29 11:54 3 5 mph 1024.3mb 47f 55f
11:48 2 6 mph 1024.4mb 47f 55f
11:36 5 6 mph 1024.4mb 48f 54f
11:30 5 6 mph 1024.5mb 48f 54f
11:24 3 6 mph 1024.5mb 47f 54f
11:18 5 6 mph 1024.6mb 47f 54f
11:12 5 7 mph 1024.6mb 47f 55f
11:06 6 8 mph 1024.7mb 47f 55f
11:00 7 9 mph 1024.7mb 47f 55f
10:54 7 9 mph 1024.6mb 47f 54f
10:48 6 8 mph 1024.6mb 47f 55f
10:36 7 9 mph 1024.5mb 47f 56f
10:30 6 8 mph 1024.5mb 47f 56f
10:24 6 8 mph 1024.5mb 47f 56f
10:18 7 9 mph 1024.5mb 47f 56f
10:12 7 8 mph 1024.5mb 47f 56f
10:06 8 9 mph 1024.5mb 47f 56f
10:00 8 9 mph 1024.5mb 47f 56f
9:54 7 8 mph 1024.4mb 47f 56f
9:48 7 9 mph 1024.4mb 47f 56f
9:36 7 10 mph 1024.4mb 47f 57f
9:30 8 11 mph 1024.4mb 47f 56f
9:24 7 11 mph 1024.4mb 47f 56f
9:18 8 10 mph 1024.3mb 47f 55f
9:12 7 8 mph 1024.4mb 47f 55f
9:06 7 9 mph 1024.5mb 47f 55f
9:00 7 9 mph 1024.5mb 47f 56f
8:54 8 10 mph 1024.5mb 47f 56f
8:48 9 11 mph 1024.5mb 47f 56f
8:36 10 13 mph 1024.4mb 46f 56f
8:30 9 13 mph 1024.4mb 46f 56f
8:24 9 13 mph 1024.5mb 46f 56f
8:18 8 10 mph 1024.5mb 46f 56f
8:12 8 11 mph 1024.4mb 46f 56f
8:06 6 8 mph 1024.4mb 47f 56f
8:00 7 13 mph 1024.3mb 47f 56f
7:54 9 14 mph 1024.4mb 47f 56f
7:48 8 10 mph 1024.5mb 46f 56f
7:36 7 9 mph 1024.5mb 47f 56f
7:30 7 9 mph 1024.5mb 47f 56f
7:24 7 9 mph 1024.5mb 47f 56f
7:18 7 9 mph 1024.6mb 47f 56f
7:12 8 11 mph 1024.5mb 47f 56f
7:06 10 11 mph 1024.5mb 47f 56f
7:00 9 15 mph 1024.5mb 47f 56f
6:54 11 14 mph 1024.5mb 47f 56f
6:48 10 14 mph 1024.4mb 47f 56f
6:36 8 10 mph - 46f 56f
6:30 8 10 mph - 46f 56f
6:24 7 10 mph - 46f 56f
6:18 8 9 mph - 47f 56f
6:12 8 9 mph - 46f 56f
6:06 8 10 mph - 46f 56f
6:00 8 10 mph - 46f 56f
5:54 8 10 mph - 46f 56f
5:48 7 10 mph - 46f 56f
5:36  -  mph 1024.6mb 46f 56f
5:30  -  mph 1024.6mb 46f 56f
5:24  -  mph 1024.6mb 46f 56f
5:18  -  mph 1024.6mb 46f 56f
5:12  -  mph 1024.7mb 46f 56f
5:06  -  mph 1024.7mb 46f 55f
5:00  -  mph 1024.7mb 46f 55f
4:54  -  mph 1024.8mb 46f 55f
4:48  -  mph 1024.8mb 47f 55f
4:36 7 9 mph 1024.6mb 47f 56f
4:30 8 10 mph 1024.6mb 47f 56f
4:24 8 10 mph 1024.6mb 47f 56f
4:18 9 11 mph 1024.6mb 47f 56f
4:12 9 13 mph 1024.7mb 47f 56f
4:06 10 13 mph 1024.7mb 47f 56f
4:00 11 15 mph 1024.6mb 47f 56f
3:54 13 14 mph 1024.6mb 47f 56f
3:48 9 14 mph 1024.7mb 47f 56f
3:36  -  mph 1024.8mb 48f 56f
3:30  -  mph 1024.8mb 48f 56f
3:24  -  mph 1024.8mb 48f 55f
3:18  -  mph 1024.8mb 48f 55f
3:12  -  mph 1024.9mb 49f 55f
3:06  -  mph 1025mb 49f 55f
3:00  -  mph 1025mb 50f 55f
2:54  -  mph 1025mb 51f 55f
2:48  -  mph 1025mb 51f 55f
2:36 6 7 mph 1024.9mb 51f 55f
2:30 5 6 mph 1024.8mb 52f 55f
2:24 5 6 mph 1024.8mb 52f 55f
2:18 5 6 mph 1024.8mb 52f 55f
2:12 5 6 mph 1024.8mb 52f 55f
2:06 5 6 mph 1024.7mb 53f 55f
2:00 5 6 mph 1024.8mb 53f 55f
1:54 5 6 mph 1024.8mb 53f 55f
1:48 5 6 mph 1024.9mb 53f 55f
1:36 5 6 mph 1024.9mb 53f 55f
1:30 5 6 mph 1024.9mb 53f 55f
1:24 5 7 mph 1024.9mb 53f 55f
1:18 5 6 mph 1024.8mb 52f 55f
1:12 5 7 mph 1024.7mb 52f 55f
1:06 5 7 mph 1024.8mb 51f 55f
1:00 6 7 mph 1024.7mb 50f 55f
12:54 6 7 mph 1024.7mb 49f 55f
12:48 6 7 mph 1024.7mb 49f 55f
12:36 6 7 mph 1024.8mb 48f 54f
12:30 5 6 mph 1024.8mb 48f 54f
12:24 6 7 mph 1024.8mb 48f 54f
12:18 3 5 mph 1024.8mb 48f 54f
12:12 2 5 mph 1024.8mb 47f 54f
12:06 3 6 mph 1024.8mb 47f 54f
12:00 5 6 mph 1024.8mb 47f 54f
11:54 5 6 mph 1024.8mb 47f 54f
11:48 6
mph
1024.8mb 47f 54f
11:36 6 8 mph 1024.8mb 47f 54f
11:30 6 8 mph 1024.8mb 47f 54f
11:24 5 7 mph 1024.8mb 47f 54f
11:18 6 7 mph 1024.8mb 47f 54f
11:12 6 7 mph 1024.8mb 47f 54f
11:06 6 7 mph 1024.8mb 47f 54f
11:00 5 7 mph 1024.8mb 47f 54f
10:54 6 7 mph 1024.8mb 47f 54f
10:48 3 6 mph 1024.8mb 47f 54f
10:36 5
mph
1024.8mb 47f 54f
10:30 3 5 mph 1024.8mb 47f 54f
10:24 2 6 mph 1024.7mb 47f 54f
10:18 3 5 mph 1024.6mb 47f 54f
10:12 5 6 mph 1024.6mb 47f 54f
10:06 3 5 mph 1024.5mb 47f 54f
10:00 6 7 mph 1024.5mb 47f 54f
9:54 5 7 mph 1024.5mb 47f 54f
9:48 5 6 mph 1024.4mb 47f 55f
9:36 5 7 mph 1024.4mb 47f 54f
9:30 5 6 mph 1024.4mb 47f 54f
9:24 5 6 mph 1024.4mb 47f 54f
9:18 5 6 mph 1024.3mb 47f 54f
9:12 5 6 mph 1024.3mb 47f 54f
9:06 5 6 mph 1024.3mb 47f 54f
9:00 3 5 mph 1024.3mb 47f 54f
8:54 5 6 mph 1024.2mb 47f 54f
8:48 5 6 mph 1024.2mb 48f 54f
8:36 5 7 mph 1024.2mb 48f 54f
8:30 5
mph
1024.2mb 48f 54f
8:24 3 6 mph 1024.2mb 48f 54f
8:18 6 7 mph 1024.1mb 48f 54f
8:12 6 7 mph 1024.1mb 48f 54f
8:06 6 7 mph 1024.1mb 48f 54f
8:00 3 6 mph 1024.1mb 49f 54f
7:54 5 6 mph 1024.1mb 49f 54f
7:48 6 7 mph 1024.1mb 49f 54f
7:36 5 6 mph 1024mb 48f 54f
7:30 5 6 mph 1024mb 48f 54f
7:24 5 6 mph 1024mb 48f 54f
7:18 5 6 mph 1024mb 48f 54f
7:12 5 6 mph 1024mb 48f 54f
7:06 5 6 mph 1024mb 48f 54f
7:00 5 7 mph 1024mb 48f 54f
6:54 5 7 mph 1023.9mb 48f 54f
6:48 5 7 mph 1023.9mb 48f 54f
6:36 5 6 mph 1023.8mb 48f 54f
6:30 3 6 mph 1023.8mb 48f 54f
6:24 3 6 mph 1023.8mb 48f 54f
6:18 5 6 mph 1023.8mb 48f 54f
6:12 5 6 mph 1023.8mb 48f 54f
6:06 5 6 mph 1023.8mb 48f 54f
6:00 3 5 mph 1023.8mb 48f 54f
5:54 5 6 mph 1023.8mb 48f 54f
5:48 5 7 mph 1023.8mb 48f 55f
5:36 5 7 mph 1023.7mb 48f 55f
5:30 5 7 mph 1023.7mb 48f 55f
5:24 6 7 mph 1023.7mb 48f 55f
5:18 6 8 mph 1023.7mb 48f 55f
5:12 6 9 mph 1023.7mb 48f 55f
5:06 7 9 mph 1023.6mb 49f 55f
5:00 6 8 mph 1023.6mb 47f 55f
4:36 5 8 mph 1023.5mb 48f 55f
4:30 5 7 mph 1023.5mb 48f 55f
4:24 5 6 mph 1023.5mb 48f 55f
4:18 3 6 mph 1023.5mb 48f 55f
4:12 2 3 mph 1023.5mb 48f 55f
4:06 3 5 mph 1023.5mb 48f 55f
4:00 3 5 mph 1023.5mb 49f 55f
3:54 3 5 mph 1023.5mb 49f 55f
3:48 2
mph
1023.6mb 49f 55f
3:36  -  2 mph 1023.5mb 51f 55f
3:30 1 2 mph 1023.5mb 52f 55f
3:24 2
mph
1023.5mb 53f 55f
3:18  -  2 mph 1023.5mb 54f 55f
3:12 1 2 mph 1023.4mb 54f 55f
3:06 2 3 mph 1023.3mb 54f 55f
3:00  -  1 mph 1023.3mb 54f 55f
2:54  -  2 mph 1023.3mb 55f 55f
2:48 1 3 mph 1023.4mb 56f 55f
2:36 2
mph
1023.4mb 56f 55f
2:30 2
mph
1023.4mb 55f 55f
2:24 1 2 mph 1023.4mb 55f 55f
2:18  -  2 mph 1023.4mb 56f 56f
2:12  -  1 mph 1023.4mb 56f 55f
2:06  -  1 mph 1023.4mb 56f 55f
2:00 2
mph
1023.4mb 56f 55f
1:54 1 2 mph 1023.4mb 56f 55f
1:48 1 3 mph 1023.3mb 56f 56f
1:36 2 3 mph 1023.3mb 56f 55f
1:30 2 5 mph 1023.4mb 56f 55f
1:24 1 2 mph 1023.4mb 56f 55f
1:18 2 5 mph 1023.4mb 56f 55f
1:12 2 5 mph 1023.3mb 55f 55f
1:06 2 5 mph 1023.3mb 55f 55f
1:00 2 5 mph 1023.3mb 53f 55f
12:54 2 3 mph 1023.3mb 53f 55f
12:48 1 2 mph 1023.3mb 52f 55f
12:36 2 3 mph 1023.4mb 49f 55f
12:30 2
mph
1023.3mb 49f 55f
12:24  -  2 mph 1023.3mb 49f 55f
12:18 1 3 mph 1023.2mb 48f 55f
12:12 2 5 mph 1023.2mb 48f 56f
12:06 1 6 mph 1023.3mb 48f 56f
12:00 5 6 mph 1023.3mb 48f 55f
Di 06/28 11:54 2 3 mph 1023.3mb 48f 55f
11:48 2 3 mph 1023.4mb 48f 55f
11:36 2 3 mph 1023.4mb 48f 55f
11:30 2 3 mph 1023.4mb 48f 55f
11:24 3 5 mph 1023.4mb 48f 55f
11:18 3 6 mph 1023.4mb 48f 55f
11:12 3 6 mph 1023.4mb 48f 55f
11:06 5 7 mph 1023.5mb 48f 55f
11:00 5 6 mph 1023.5mb 47f 55f
10:54 5 6 mph 1023.5mb 47f 55f
10:48 5 8 mph 1023.6mb 47f 55f
10:36 6 8 mph 1023.6mb 47f 55f
10:30 6 8 mph 1023.6mb 47f 55f
10:24 5 8 mph 1023.6mb 47f 55f
10:18 5 6 mph 1023.5mb 47f 55f
10:12 6 8 mph 1023.5mb 47f 55f
10:06 5 6 mph 1023.5mb 47f 55f
10:00 3 5 mph 1023.5mb 47f 55f
9:54 5
mph
1023.4mb 47f 55f
9:48 5 6 mph 1023.4mb 47f 55f
9:36 5 6 mph 1023.4mb 47f 55f
9:30 6 7 mph 1023.4mb 47f 54f
9:24 3 5 mph 1023.3mb 47f 54f
9:18 5 6 mph 1023.3mb 47f 55f
9:12 6 7 mph 1023.4mb 48f 54f
9:06 5 6 mph 1023.3mb 48f 54f
9:00 5 7 mph 1023.3mb 48f 55f
8:54 6 8 mph 1023.2mb 48f 54f
8:48 7 8 mph 1023.2mb 47f 54f
8:36 9 11 mph 1023.4mb 48f 54f
8:30 9 10 mph 1023.4mb 48f 54f
8:24 7 9 mph 1023.3mb 48f 55f
8:18 7 10 mph 1023.3mb 48f 54f
8:12 8 10 mph 1023.3mb 48f 54f
8:06 9 11 mph 1023.3mb 48f 54f
8:00 9 10 mph 1023.3mb 48f 55f
7:54 6 9 mph 1023.2mb 48f 55f
7:48 7 8 mph 1023.2mb 48f 55f
7:36 7 8 mph 1023.2mb 48f 55f
7:30 6 8 mph 1023.1mb 49f 55f
7:24 6 7 mph 1023.1mb 48f 55f
7:18 7 8 mph 1023.1mb 48f 55f
7:12 6 7 mph 1023mb 48f 55f
7:06 6 7 mph 1023mb 48f 55f
7:00 6 7 mph 1023.1mb 47f 55f
6:54 5 7 mph 1023mb 47f 55f
6:48 5 7 mph 1023mb 48f 55f
6:36  -  mph 1023.1mb 47f 55f
6:30  -  mph 1023.1mb 48f 55f
6:24  -  mph 1023.1mb 48f 55f
6:18  -  mph 1023.1mb 48f 55f
6:12  -  mph 1023.1mb 48f 55f
6:06  -  mph 1023.1mb 48f 55f
6:00  -  mph 1023.1mb 48f 55f
5:54  -  mph 1023.1mb 48f 55f
5:48  -  mph 1023.1mb 49f 55f
5:36 6 7 mph 1023.3mb 49f 55f
5:30 6
mph
1023.2mb 48f 55f
5:24 3 5 mph 1023.2mb 48f 55f
5:18 3 6 mph 1023.3mb 48f 56f
5:12 3 5 mph 1023.3mb 48f 56f
5:06 3 5 mph 1023.4mb 48f 56f
5:00 3 6 mph 1023.4mb 48f 56f
4:54 5 6 mph 1023.5mb 48f 56f
4:48 5 6 mph 1023.6mb 48f 56f
4:36  -  mph 1023.6mb 48f 56f
4:30  -  mph 1023.7mb 48f 56f
4:24  -  mph 1023.7mb 48f 56f
4:18  -  mph 1023.8mb 48f 56f
4:12  -  mph 1023.8mb 48f 56f
4:06  -  mph 1023.8mb 47f 56f
4:00  -  mph 1023.9mb 47f 56f
3:54  -  mph 1024mb 47f 56f
3:48  -  mph 1023.9mb 47f 56f
3:36  -  mph 1024.1mb - 56f
3:30  -  mph 1024.2mb - 56f
3:24  -  mph 1024.2mb - 56f
3:18  -  mph 1024.2mb - 55f
3:12  -  mph 1024.3mb - 56f
3:06  -  mph 1024.3mb - 56f
3:00  -  mph 1024.3mb - 55f
2:54  -  mph 1024.3mb - 55f
2:48  -  mph 1024.3mb - 55f
2:36 6 7 mph 1024.3mb 48f 56f
2:30 5 6 mph 1024.3mb 49f 55f
2:24 5 6 mph 1024.3mb 49f 55f
2:18 5 6 mph 1024.3mb 49f 56f
2:12 5 6 mph 1024.4mb 49f 56f
2:06 5 7 mph 1024.4mb 50f 56f
2:00 5 7 mph 1024.4mb 50f 56f
1:54 6 7 mph 1024.4mb 51f 56f
1:48 6 7 mph 1024.4mb 51f 56f
1:36 6 8 mph 1024.4mb 51f 56f
1:30 6 7 mph 1024.3mb 52f 56f
1:24 6 9 mph 1024.3mb 52f 56f
1:18 6 7 mph 1024.3mb 53f 56f
1:12 6 7 mph 1024.3mb 53f 56f
1:06 6 8 mph 1024.4mb 54f 56f
1:00 6 8 mph 1024.3mb 54f 56f
12:54 6 7 mph 1024.3mb 54f 56f
12:48 6 8 mph 1024.3mb 54f 56f
12:36 6 8 mph 1024.4mb 55f 56f
12:30 7 8 mph 1024.4mb 54f 56f
12:24 5 6 mph 1024.4mb 53f 56f
12:18 5 6 mph 1024.4mb 53f 56f
12:12 3 5 mph 1024.3mb 53f 56f
12:06 3 6 mph 1024.3mb 52f 56f
12:00 2 5 mph 1024.3mb 51f 55f
11:54 3 5 mph 1024.3mb 51f 55f
11:48 3 5 mph 1024.3mb 50f 55f
11:36 2 3 mph 1024.3mb 49f 55f
11:30 2
mph
1024.3mb 49f 55f
11:24 1 2 mph 1024.3mb 49f 55f
11:18 2 3 mph 1024.3mb 48f 55f
11:12 2 3 mph 1024.3mb 48f 55f
11:06 2
mph
1024.2mb 48f 55f
11:00 2
mph
1024.2mb 48f 55f
10:54 2
mph
1024.2mb 48f 55f
10:48 1 2 mph 1024.2mb 48f 55f
10:36 1
mph
1024.2mb 48f 55f
10:30 1 2 mph 1024.2mb 48f 55f
10:24 1 2 mph 1024.3mb 48f 55f
10:18 1 2 mph 1024.3mb 48f 55f
10:12  -  2 mph 1024.3mb 48f 55f
10:06  -  2 mph 1024.3mb 48f 55f
10:00  -  1 mph 1024.4mb 48f 55f
9:54 1
mph
1024.4mb 48f 55f
9:48 1
mph
1024.5mb 47f 55f
9:36 1 2 mph 1024.5mb 47f 54f
9:30 1
mph
1024.4mb 47f 54f
9:24  -  1 mph 1024.4mb 47f 54f
9:18 2
mph
1024.4mb 47f 55f
9:12  -  1 mph 1024.4mb 47f 54f
9:06  -  1 mph 1024.5mb 47f 54f
9:00 1
mph
1024.5mb 47f 54f
8:54  -  1 mph 1024.4mb 47f 54f
8:48  -  1 mph 1024.4mb 47f 54f
8:36 2
mph
1024.4mb 48f 54f
8:30  -  1 mph 1024.3mb 48f 54f
8:24  -  2 mph 1024.4mb 48f 54f
8:18 2
mph
1024.3mb 48f 54f
8:12  -  1 mph 1024.3mb 48f 54f
8:06  -  2 mph 1024.3mb 48f 54f
8:00 2
mph
1024.3mb 48f 54f
7:54 2
mph
1024.2mb 48f 54f
7:48 2 3 mph 1024.3mb 48f 54f
7:36 2 3 mph 1024.1mb 48f 53f
7:30 3 5 mph 1024.1mb 48f 53f
7:24 5 6 mph 1024.1mb 48f 53f
7:18 2 3 mph 1024.2mb 48f 53f
7:12  -  2 mph 1024.1mb 48f 53f
7:06 2
mph
1024.1mb 49f 53f
7:00 1 5 mph 1024.1mb 49f 53f
6:54 5 6 mph 1024.1mb 49f 53f
6:48 2 3 mph 1024.1mb 49f 53f
6:36  -  2 mph 1024.1mb 49f 53f
6:30 2 3 mph 1024.1mb 49f 53f
6:24 3 5 mph 1024mb 49f 54f
6:18 3
mph
1024mb 49f 54f
6:12 3 5 mph 1024mb 49f 54f
6:06 2
mph
1023.9mb 49f 54f
6:00 2
mph
1023.8mb 49f 54f
5:54 1 2 mph 1023.8mb 49f 54f
5:48 1 2 mph 1023.8mb 49f 54f
5:36 1 2 mph 1023.8mb 49f 54f
5:30 1 2 mph 1023.8mb 49f 54f
5:24 2
mph
1023.8mb 49f 54f
5:18 2 3 mph 1023.8mb 49f 54f
5:12 2 3 mph 1023.7mb 49f 54f
5:06 1 2 mph 1023.7mb 49f 54f
5:00 1 2 mph 1023.6mb 49f 54f
4:54 1 2 mph 1023.7mb 47f 54f
4:48 1 2 mph 1023.7mb 48f 54f
4:36 1 2 mph 1023.7mb 48f 54f
4:30  -  2 mph 1023.7mb 48f 54f
4:24 1 2 mph 1023.7mb 48f 54f
4:18  -  2 mph 1023.7mb 48f 54f
4:12  -  2 mph 1023.8mb 48f 54f
4:06 2 3 mph 1023.8mb 48f 54f
4:00 1 2 mph 1023.8mb 48f 54f
3:54  -  2 mph 1023.8mb 48f 54f
3:48 1 2 mph 1023.8mb 48f 54f
3:36 1 2 mph 1023.7mb 48f 54f
3:30 2
mph
1023.7mb 48f 54f
3:24 1 2 mph 1023.7mb 48f 54f
3:18 2 3 mph 1023.8mb 48f 54f
3:12 1 3 mph 1023.7mb 49f 54f
3:06 3
mph
1023.7mb 49f 54f
3:00 2 5 mph 1023.7mb 49f 54f
2:54 3
mph
1023.7mb 49f 54f
2:48 2 3 mph 1023.6mb 49f 54f
2:36 3 5 mph 1023.7mb 49f 54f
2:30 2
mph
1023.7mb 50f 54f
2:24 2 5 mph 1023.7mb 50f 54f
2:18 3
mph
1023.7mb 51f 54f
2:12 1 2 mph 1023.7mb 51f 54f
2:06 2 3 mph 1023.7mb 51f 54f
2:00 2 3 mph 1023.7mb 52f 55f
1:54 2
mph
1023.7mb 53f 55f
1:48 2
mph
1023.7mb 54f 55f
1:36 1 3 mph 1023.6mb 54f 55f
1:30 2 3 mph 1023.6mb 54f 55f
1:24  -  2 mph 1023.6mb 54f 55f
1:18  -  2 mph 1023.6mb 55f 55f
1:12 1 2 mph 1023.7mb 55f 55f
1:06 2 3 mph 1023.7mb 56f 55f
1:00  -  2 mph 1023.8mb 57f 55f
12:54 2 3 mph 1023.8mb 57f 55f
12:48 1 2 mph 1023.8mb 56f 55f
12:36 2 3 mph 1023.9mb 56f 55f
12:30 2
mph
1023.9mb 55f 55f
12:24 1 2 mph 1023.9mb 55f 55f
12:18 1 2 mph 1023.9mb 54f 55f
12:12 1 2 mph 1023.8mb 53f 55f
12:06 1 2 mph 1023.8mb 52f 55f
12:00 2 3 mph 1023.9mb 52f 55f
Mo 06/27 11:54 2 3 mph 1023.9mb 51f 55f
11:48 3 6 mph 1023.8mb 51f 55f
11:36 2 3 mph 1023.9mb 49f 55f
11:30 3
mph
1024mb 49f 55f
11:24 2
mph
1024mb 49f 55f
11:18 2 5 mph 1024mb 49f 55f
11:12 2 3 mph 1024mb 48f 55f
11:06 3 5 mph 1024.1mb 48f 55f
11:00 2 3 mph 1024.1mb 48f 55f
10:54 2 3 mph 1024.1mb 48f 55f
10:48 2 3 mph 1024.1mb 48f 55f
10:36 3 5 mph 1024.1mb 48f 55f
10:30 2 5 mph 1024.1mb 48f 55f
10:24 3 5 mph 1024.1mb 48f 55f
10:18 3
mph
1024.1mb 48f 55f
10:12 3 6 mph 1024.1mb 48f 55f
10:06 5 6 mph 1024mb 48f 55f
10:00 3 6 mph 1023.9mb 47f 55f
9:54 6 8 mph 1023.9mb 48f 55f
9:48 6 7 mph 1023.9mb 48f 55f
9:36 6 7 mph 1023.9mb 48f 55f
9:30 6
mph
1023.9mb 48f 55f
9:24 5 7 mph 1023.8mb 48f 55f
9:18 5 7 mph 1023.8mb 48f 55f
9:12 6 8 mph 1023.9mb 48f 55f
9:06 6 8 mph 1023.8mb 48f 55f
9:00 6 9 mph 1023.8mb 48f 55f
8:54 7 9 mph 1023.8mb 48f 55f
8:48 6 8 mph 1023.8mb 48f 55f
8:36 9
mph
1023.8mb 48f 55f
8:30 6 8 mph 1023.8mb 48f 55f
8:24 7 8 mph 1023.8mb 48f 55f
8:18 6 9 mph 1023.9mb 48f 55f
8:12 9 11 mph 1023.9mb 48f 55f
8:06 8 10 mph 1023.9mb 48f 55f
8:00 8 9 mph 1023.9mb 48f 55f
7:54 8 10 mph 1023.9mb 48f 55f
7:48 7 10 mph 1023.8mb 48f 55f
7:36 6 7 mph 1023.7mb 48f 55f
7:30 5 7 mph 1023.6mb 48f 55f
7:24 7 9 mph 1023.6mb 48f 55f
7:18 8 9 mph 1023.7mb 48f 55f
7:12 6 8 mph 1023.7mb 48f 55f
7:06 6 7 mph 1023.6mb 48f 55f
7:00 6 7 mph 1023.6mb 48f 55f
6:54 6 10 mph 1023.5mb 48f 55f
6:48 7 9 mph 1023.5mb 48f 55f
6:36 8 10 mph 1023.5mb 48f 55f
6:30 6 8 mph 1023.5mb 48f 55f
6:24 6 9 mph 1023.5mb 48f 55f
6:18 6 10 mph 1023.6mb 48f 55f
6:12 8 10 mph 1023.6mb 48f 55f
6:06 6 9 mph 1023.6mb 48f 55f
6:00 7 9 mph 1023.7mb 48f 55f
5:54 7 8 mph 1023.7mb 48f 56f
5:48 7 9 mph 1023.7mb 48f 56f
5:36 8 9 mph 1023.8mb 48f 55f
5:30 6 8 mph 1023.8mb 48f 55f
5:24 7 8 mph 1023.8mb 48f 55f
5:18 7 8 mph 1023.9mb 48f 55f
5:12 6 8 mph 1023.9mb 48f 56f
5:06 7 8 mph 1024mb 48f 56f
5:00 6 8 mph 1024mb 48f 55f
4:54 6 7 mph 1024mb 48f 55f
4:48 6 8 mph 1024mb 48f 55f
4:36  -  mph 1024mb 48f 55f
4:30  -  mph 1024mb 48f 55f
4:24  -  mph 1024.1mb 48f 55f
4:18  -  mph 1024.1mb 48f 55f
4:12  -  mph 1024mb 48f 55f
4:06  -  mph 1024mb 48f 55f
4:00  -  mph 1024mb 48f 55f
3:54  -  mph 1024mb 48f 55f
3:48  -  mph 1024mb 48f 55f
3:36  -  mph 1023.9mb 48f 56f
3:30  -  mph 1023.9mb 48f 55f
3:24  -  mph 1023.9mb 48f 56f
3:18  -  mph 1023.9mb 48f 56f
3:12  -  mph 1023.9mb 48f 56f
3:06  -  mph 1023.9mb 47f 56f
3:00  -  mph 1023.8mb 47f 56f
2:54  -  mph 1023.8mb 48f 56f
2:48  -  mph 1023.9mb 48f 56f
2:36 8 9 mph 1023.9mb 48f 56f
2:30 8 9 mph 1023.9mb 48f 56f
2:24 7 9 mph 1023.9mb 48f 56f
2:18 7 9 mph 1023.9mb 49f 56f
2:12 7 9 mph 1023.9mb 49f 56f
2:06 6 8 mph 1023.9mb 49f 56f
2:00 6 8 mph 1023.9mb 49f 56f
1:54 7 9 mph 1023.9mb 50f 56f
1:48 7 9 mph 1023.9mb 50f 56f
1:36 6 8 mph 1023.9mb 51f 56f
1:30 6 8 mph 1023.8mb 52f 56f
1:24 6 8 mph 1023.8mb 53f 56f
1:18 6 7 mph 1023.8mb 53f 56f
1:12 6 8 mph 1023.8mb 54f 56f
1:06 6 8 mph 1023.8mb 55f 56f
1:00 6 8 mph 1023.7mb 56f 56f
12:54 6 8 mph 1023.7mb 56f 56f
12:48 6 8 mph 1023.7mb 56f 56f
12:36 6 8 mph 1023.7mb 56f 56f
12:30 6 7 mph 1023.6mb 56f 56f
12:24 6 7 mph 1023.5mb 57f 56f
12:18 5 6 mph 1023.5mb 57f 56f
12:12 5 6 mph 1023.5mb 57f 56f
12:06 6 7 mph 1023.4mb 58f 56f
12:00 5 6 mph 1023.4mb 58f 56f